Time;durP1;ratioP1;P1;durP2;ratioP2;P2;SDS_P1;SDS_P2;PMS_P1;PMS_P2;Temp;Humidity;BMP_temperature;BMP_pressure;BME280_temperature;BME280_humidity;BME280_pressure;Samples;Min_cycle;Max_cycle;Signal;HPM_P1;HPM_P2
2024/04/07 00:00:31;;;;;;;6.03;2.05;;;17.30;62.30;;;;;;5030236;28;20098;-60
2024/04/07 00:03:17;;;;;;;8.55;2.67;;;17.30;62.30;;;;;;5027357;28;20044;-59
2024/04/07 00:06:02;;;;;;;4.80;2.38;;;17.30;62.30;;;;;;5028947;28;20060;-59
2024/04/07 00:08:47;;;;;;;8.13;2.42;;;17.30;62.30;;;;;;5029758;28;20048;-59
2024/04/07 00:11:31;;;;;;;6.57;2.22;;;17.30;62.30;;;;;;5028348;28;20055;-58
2024/04/07 00:14:16;;;;;;;6.03;1.98;;;17.20;62.20;;;;;;5029824;28;20107;-58
2024/04/07 00:17:01;;;;;;;7.80;1.83;;;17.20;62.20;;;;;;5023211;28;20458;-59
2024/04/07 00:19:48;;;;;;;6.07;1.67;;;17.20;62.20;;;;;;5030817;28;20111;-59
2024/04/07 00:22:33;;;;;;;3.95;1.58;;;17.20;62.30;;;;;;5024977;28;20027;-58
2024/04/07 00:25:18;;;;;;;7.13;2.13;;;17.20;62.30;;;;;;5014031;28;20090;-59
2024/04/07 00:28:02;;;;;;;7.05;2.47;;;17.10;62.10;;;;;;5029274;28;20501;-59
2024/04/07 00:30:48;;;;;;;6.75;1.80;;;17.10;62.10;;;;;;5029233;28;20108;-60
2024/04/07 00:33:32;;;;;;;9.05;2.58;;;17.10;62.20;;;;;;5015720;28;20445;-61
2024/04/07 00:36:17;;;;;;;4.70;1.67;;;17.00;62.00;;;;;;5030831;28;20051;-58
2024/04/07 00:39:02;;;;;;;4.82;1.40;;;17.10;62.20;;;;;;5031644;28;20178;-58
2024/04/07 00:41:50;;;;;;;4.13;1.35;;;17.00;62.10;;;;;;5032554;28;20044;-59
2024/04/07 00:44:36;;;;;;;6.20;1.65;;;17.00;62.10;;;;;;5032898;28;20086;-58
2024/04/07 00:47:21;;;;;;;7.25;1.85;;;17.00;62.20;;;;;;5020120;28;20317;-58
2024/04/07 00:50:06;;;;;;;5.57;1.80;;;16.90;62.00;;;;;;5033513;28;20598;-59
2024/04/07 00:52:52;;;;;;;4.60;1.40;;;16.90;62.00;;;;;;5029183;28;20128;-58
2024/04/07 00:55:37;;;;;;;5.95;1.52;;;16.90;62.00;;;;;;5031079;28;20079;-58
2024/04/07 00:58:24;;;;;;;8.02;2.50;;;16.80;61.90;;;;;;5022399;28;20025;-58
2024/04/07 01:01:08;;;;;;;6.93;1.45;;;16.80;62.50;;;;;;5036126;28;20449;-58
2024/04/07 01:03:56;;;;;;;3.47;1.30;;;16.80;62.00;;;;;;5038084;28;20032;-59
2024/04/07 01:06:42;;;;;;;3.75;1.52;;;16.80;62.00;;;;;;5022572;28;20056;-58
2024/04/07 01:09:27;;;;;;;7.32;2.17;;;16.80;62.00;;;;;;5040505;28;20129;-59
2024/04/07 01:12:13;;;;;;;4.85;1.27;;;16.70;61.90;;;;;;5033253;28;20048;-60
2024/04/07 01:14:58;;;;;;;5.72;1.42;;;16.60;61.80;;;;;;5029719;28;20102;-59
2024/04/07 01:17:43;;;;;;;4.95;1.58;;;16.60;61.80;;;;;;5017767;28;20096;-59
2024/04/07 01:20:29;;;;;;;6.22;1.83;;;16.70;62.00;;;;;;5010023;28;20127;-60
2024/04/07 01:23:17;;;;;;;4.93;1.75;;;16.60;61.90;;;;;;5017009;28;20049;-64
2024/04/07 01:26:02;;;;;;;4.88;1.55;;;16.60;62.00;;;;;;5012340;28;20079;-59
2024/04/07 01:28:46;;;;;;;5.03;1.55;;;16.60;62.00;;;;;;5015422;28;20087;-60
2024/04/07 01:31:31;;;;;;;5.68;1.65;;;16.50;61.80;;;;;;5021143;28;20573;-58
2024/04/07 01:34:16;;;;;;;3.47;1.60;;;16.50;61.80;;;;;;5014545;28;20495;-58
2024/04/07 01:37:01;;;;;;;5.25;1.58;;;16.50;61.90;;;;;;5017150;28;20752;-62
2024/04/07 01:39:46;;;;;;;6.80;1.65;;;16.40;61.70;;;;;;5015399;28;20053;-60
2024/04/07 01:42:31;;;;;;;4.03;1.30;;;16.50;62.00;;;;;;5031326;28;20068;-60
2024/04/07 01:45:15;;;;;;;4.82;1.58;;;16.40;62.30;;;;;;5017666;28;20138;-59
2024/04/07 01:48:00;;;;;;;5.97;1.42;;;16.40;61.80;;;;;;5017002;28;20090;-58
2024/04/07 01:50:48;;;;;;;4.53;1.65;;;16.40;61.80;;;;;;5015565;28;20143;-58
2024/04/07 01:53:32;;;;;;;7.13;2.10;;;16.40;61.90;;;;;;5016511;28;20095;-59
2024/04/07 01:56:17;;;;;;;7.88;2.08;;;16.40;61.90;;;;;;5014292;28;20040;-59
2024/04/07 01:59:03;;;;;;;6.18;1.60;;;16.40;61.90;;;;;;5013061;28;20559;-59
2024/04/07 02:01:51;;;;;;;6.95;2.13;;;16.40;61.90;;;;;;5019526;28;20024;-59
2024/04/07 02:04:36;;;;;;;7.78;1.90;;;16.30;61.70;;;;;;5013232;28;20040;-59
2024/04/07 02:07:21;;;;;;;5.15;2.70;;;16.30;61.80;;;;;;5015054;28;20049;-59
2024/04/07 02:10:08;;;;;;;6.65;2.75;;;16.30;61.80;;;;;;5014867;28;20063;-59
2024/04/07 02:12:53;;;;;;;6.40;2.63;;;16.30;61.80;;;;;;5017413;28;20024;-58
2024/04/07 02:15:38;;;;;;;7.20;2.20;;;16.30;61.80;;;;;;5034817;28;20565;-60
2024/04/07 02:18:23;;;;;;;6.70;1.80;;;16.30;61.80;;;;;;5034724;28;20124;-60
2024/04/07 02:21:07;;;;;;;7.38;1.70;;;16.30;61.80;;;;;;5034590;28;20043;-61
2024/04/07 02:23:52;;;;;;;6.25;1.63;;;16.30;61.80;;;;;;5035753;28;20541;-59
2024/04/07 02:26:37;;;;;;;6.32;1.55;;;16.30;61.80;;;;;;5015787;28;20216;-59
2024/04/07 02:29:22;;;;;;;7.18;1.90;;;16.30;61.80;;;;;;5035329;28;20036;-60
2024/04/07 02:32:08;;;;;;;8.70;2.08;;;16.20;61.60;;;;;;5032889;28;20526;-59
2024/04/07 02:34:52;;;;;;;7.07;1.90;;;16.30;61.90;;;;;;5037814;28;20067;-60
2024/04/07 02:37:37;;;;;;;3.38;1.70;;;16.30;61.80;;;;;;5033912;28;20466;-60
2024/04/07 02:40:22;;;;;;;5.85;2.08;;;16.30;61.80;;;;;;5026034;28;20352;-60
2024/04/07 02:43:07;;;;;;;6.05;2.15;;;16.20;61.70;;;;;;5035317;28;20097;-59
2024/04/07 02:49:00;;;;;;;7.72;1.90;;;16.20;61.70;;;;;;5039583;28;20044;-64
2024/04/07 02:51:45;;;;;;;8.68;2.85;;;16.20;61.70;;;;;;5035366;28;20417;-58
2024/04/07 02:54:30;;;;;;;5.20;1.60;;;16.20;61.70;;;;;;5033600;28;20040;-62
2024/04/07 02:57:15;;;;;;;6.38;1.52;;;16.20;61.70;;;;;;5035425;28;20055;-60
2024/04/07 03:00:00;;;;;;;5.53;1.35;;;16.20;61.70;;;;;;5037025;28;20043;-61
2024/04/07 03:02:45;;;;;;;7.57;2.17;;;16.20;61.80;;;;;;5041805;28;20040;-59
2024/04/07 03:05:30;;;;;;;6.45;2.17;;;16.10;61.60;;;;;;5028886;28;20100;-58
2024/04/07 03:08:16;;;;;;;6.78;2.22;;;16.10;61.70;;;;;;5032057;28;20040;-59
2024/04/07 03:11:02;;;;;;;6.88;2.30;;;16.10;61.70;;;;;;5035850;28;20051;-59
2024/04/07 03:13:47;;;;;;;7.55;2.63;;;16.10;61.80;;;;;;5036307;28;20102;-64
2024/04/07 03:16:31;;;;;;;5.68;2.13;;;16.10;61.80;;;;;;5032275;28;20039;-59
2024/04/07 03:19:16;;;;;;;8.50;2.20;;;16.10;61.80;;;;;;5031171;28;20039;-58
2024/04/07 03:22:02;;;;;;;9.23;2.15;;;16.10;61.80;;;;;;5031305;28;20072;-61
2024/04/07 03:24:46;;;;;;;6.97;2.50;;;16.10;61.90;;;;;;5034121;28;20056;-58
2024/04/07 03:27:32;;;;;;;6.80;2.65;;;16.10;61.90;;;;;;5038897;28;20044;-59
2024/04/07 03:30:17;;;;;;;5.90;2.13;;;16.10;61.90;;;;;;5036072;28;20063;-61
2024/04/07 03:33:02;;;;;;;7.20;1.80;;;16.10;62.00;;;;;;5029273;28;20712;-58
2024/04/07 03:35:47;;;;;;;5.18;1.70;;;16.00;61.80;;;;;;5034827;28;20075;-58
2024/04/07 03:38:32;;;;;;;6.20;2.03;;;16.00;61.80;;;;;;5032498;28;20476;-59
2024/04/07 03:41:17;;;;;;;7.70;2.72;;;16.00;61.90;;;;;;5036299;28;20514;-59
2024/04/07 03:44:02;;;;;;;9.23;2.13;;;16.00;61.90;;;;;;5030369;28;20190;-58
2024/04/07 03:46:50;;;;;;;5.95;2.00;;;16.00;61.90;;;;;;5035066;28;20044;-59
2024/04/07 03:49:36;;;;;;;8.60;2.38;;;16.00;61.90;;;;;;5031153;28;20043;-61
2024/04/07 03:52:21;;;;;;;8.43;2.85;;;16.00;61.90;;;;;;5031795;28;20056;-59
2024/04/07 03:55:06;;;;;;;4.22;1.85;;;16.00;61.90;;;;;;5034042;28;20312;-67
2024/04/07 03:57:52;;;;;;;7.03;2.03;;;16.00;61.90;;;;;;5034137;28;20406;-62
2024/04/07 04:00:37;;;;;;;5.50;2.08;;;16.00;61.90;;;;;;5029683;28;20044;-60
2024/04/07 04:03:22;;;;;;;7.88;1.75;;;16.10;62.10;;;;;;5031820;28;20044;-60
2024/04/07 04:06:07;;;;;;;7.70;2.10;;;16.00;61.90;;;;;;5035394;28;20163;-58
2024/04/07 04:08:51;;;;;;;8.00;2.33;;;16.00;61.90;;;;;;5020587;28;20448;-58
2024/04/07 04:11:36;;;;;;;6.10;2.20;;;16.00;61.90;;;;;;5032248;28;20122;-58
2024/04/07 04:14:21;;;;;;;6.40;1.83;;;16.00;61.90;;;;;;5034275;28;20059;-58
2024/04/07 04:17:06;;;;;;;7.78;2.22;;;16.00;62.00;;;;;;5033276;28;20060;-58
2024/04/07 04:19:51;;;;;;;7.97;2.50;;;16.00;62.00;;;;;;5028655;28;20059;-59
2024/04/07 04:22:36;;;;;;;8.70;2.22;;;16.00;62.00;;;;;;5016289;28;20112;-59
2024/04/07 04:25:21;;;;;;;8.05;3.08;;;16.00;62.00;;;;;;5033386;28;20044;-59
2024/04/07 04:28:06;;;;;;;8.40;2.38;;;16.00;62.00;;;;;;5036793;28;20100;-58
2024/04/07 04:30:55;;;;;;;7.78;2.67;;;16.10;62.30;;;;;;5030568;28;20410;-57
2024/04/07 04:33:40;;;;;;;5.07;2.20;;;16.10;62.30;;;;;;5033482;28;20154;-59
2024/04/07 04:36:27;;;;;;;5.55;1.60;;;16.10;62.30;;;;;;5030024;28;20052;-59
2024/04/07 04:39:14;;;;;;;5.07;1.88;;;16.10;62.30;;;;;;5018169;28;20053;-59
2024/04/07 04:41:58;;;;;;;8.50;2.72;;;16.10;62.30;;;;;;5029310;28;20459;-60
2024/04/07 04:44:43;;;;;;;6.25;1.50;;;16.20;62.50;;;;;;5037611;28;20071;-62
2024/04/07 04:47:28;;;;;;;8.32;2.25;;;16.20;62.50;;;;;;5017771;28;20048;-59
2024/04/07 04:50:13;;;;;;;6.18;2.28;;;16.20;62.50;;;;;;5033961;28;20435;-59
2024/04/07 04:52:57;;;;;;;7.28;2.05;;;16.20;62.40;;;;;;5031702;28;20044;-61
2024/04/07 04:55:43;;;;;;;6.95;2.08;;;16.20;62.40;;;;;;5030911;28;20091;-66
2024/04/07 04:58:33;;;;;;;8.93;3.08;;;16.30;62.60;;;;;;5034773;28;20044;-60
2024/04/07 05:01:18;;;;;;;9.40;2.00;;;16.30;62.60;;;;;;5023787;28;20682;-59
2024/04/07 05:04:03;;;;;;;5.18;1.80;;;16.30;62.50;;;;;;5031387;28;20124;-58
2024/04/07 05:06:47;;;;;;;5.30;1.65;;;16.40;62.60;;;;;;5032634;28;20132;-61
2024/04/07 05:09:34;;;;;;;8.93;2.95;;;16.40;62.60;;;;;;5033509;28;20439;-66
2024/04/07 05:12:19;;;;;;;9.15;2.58;;;16.40;62.60;;;;;;5032196;28;20597;-64
2024/04/07 05:15:04;;;;;;;7.30;2.08;;;16.50;62.70;;;;;;5040238;28;20463;-59
2024/04/07 05:17:50;;;;;;;10.10;2.15;;;16.50;62.70;;;;;;5006119;28;20117;-59
2024/04/07 05:20:35;;;;;;;6.43;1.92;;;16.50;62.60;;;;;;5033913;28;20032;-58
2024/04/07 05:23:21;;;;;;;6.22;1.83;;;16.50;62.60;;;;;;5031900;28;20056;-59
2024/04/07 05:26:19;;;;;;;7.28;2.05;;;16.50;63.10;;;;;;5027692;28;20059;-59
2024/04/07 05:29:04;;;;;;;9.25;2.20;;;16.60;62.80;;;;;;5019122;28;20098;-58
2024/04/07 05:31:50;;;;;;;6.90;2.15;;;16.60;62.60;;;;;;5035721;28;20048;-58
2024/04/07 05:34:34;;;;;;;7.20;2.50;;;16.60;62.60;;;;;;5016844;28;20102;-57
2024/04/07 05:37:19;;;;;;;7.38;2.60;;;16.70;62.80;;;;;;5024696;28;20503;-59
2024/04/07 05:40:05;;;;;;;6.57;2.83;;;16.70;62.80;;;;;;5031310;28;20051;-58
2024/04/07 05:42:51;;;;;;;5.22;1.95;;;16.70;62.80;;;;;;5031677;28;20129;-58
2024/04/07 05:45:37;;;;;;;8.32;2.40;;;16.70;62.70;;;;;;5032912;28;20060;-58
2024/04/07 05:48:23;;;;;;;10.38;3.42;;;16.70;62.70;;;;;;5044608;28;20039;-57
2024/04/07 05:51:13;;;;;;;9.82;3.10;;;16.80;62.80;;;;;;5043143;28;20027;-58
2024/04/07 05:53:58;;;;;;;9.52;2.50;;;16.80;62.80;;;;;;5006815;28;20112;-63
2024/04/07 05:56:42;;;;;;;9.88;2.03;;;16.90;62.90;;;;;;5021162;28;20320;-61
2024/04/07 05:59:27;;;;;;;8.77;2.15;;;16.90;62.90;;;;;;5041585;28;20102;-58
2024/04/07 06:02:11;;;;;;;7.95;2.20;;;16.90;62.80;;;;;;5038682;28;20067;-57
2024/04/07 06:04:57;;;;;;;8.00;2.53;;;16.90;62.80;;;;;;5035849;28;20044;-64
2024/04/07 06:07:42;;;;;;;6.97;2.35;;;16.90;62.80;;;;;;5033792;28;20581;-58
2024/04/07 06:10:27;;;;;;;6.50;1.73;;;16.90;62.70;;;;;;5045433;28;20191;-58
2024/04/07 06:13:12;;;;;;;5.72;2.58;;;17.00;62.80;;;;;;5033934;28;20279;-56
2024/04/07 06:15:57;;;;;;;9.80;2.70;;;17.00;62.90;;;;;;5034773;28;20086;-51
2024/04/07 06:18:42;;;;;;;6.75;1.88;;;17.00;62.90;;;;;;5036242;28;20112;-52
2024/04/07 06:21:27;;;;;;;8.27;2.05;;;17.10;63.10;;;;;;5045112;28;20542;-52
2024/04/07 06:24:11;;;;;;;8.30;2.03;;;17.10;63.10;;;;;;5030441;28;20047;-51
2024/04/07 06:26:56;;;;;;;8.13;3.33;;;17.10;63.20;;;;;;5038369;28;20114;-53
2024/04/07 06:29:41;;;;;;;5.30;1.83;;;17.20;63.30;;;;;;5043420;28;20056;-53
2024/04/07 06:32:26;;;;;;;7.22;2.47;;;17.20;63.30;;;;;;5027946;28;20573;-54
2024/04/07 06:35:11;;;;;;;7.68;2.28;;;17.30;63.50;;;;;;5034276;28;20206;-55
2024/04/07 06:37:56;;;;;;;7.72;2.42;;;17.30;63.40;;;;;;5022056;28;20117;-56
2024/04/07 06:40:40;;;;;;;7.07;2.55;;;17.30;63.40;;;;;;5037014;28;20039;-55
2024/04/07 06:43:25;;;;;;;7.65;2.35;;;17.40;63.60;;;;;;5034833;28;20121;-57
2024/04/07 06:46:10;;;;;;;6.68;2.40;;;17.40;63.60;;;;;;5027982;28;20056;-59
2024/04/07 06:48:55;;;;;;;6.57;2.22;;;17.50;63.70;;;;;;5034005;28;20102;-57
2024/04/07 06:51:39;;;;;;;8.27;3.33;;;17.50;63.60;;;;;;5031871;28;20102;-66
2024/04/07 06:54:25;;;;;;;8.07;2.55;;;17.60;63.80;;;;;;5025283;28;20414;-57
2024/04/07 06:57:10;;;;;;;5.20;2.00;;;17.60;63.80;;;;;;5023614;28;20119;-57
2024/04/07 06:59:55;;;;;;;13.60;2.80;;;17.70;63.90;;;;;;5042331;28;20091;-58
2024/04/07 07:02:39;;;;;;;7.95;2.60;;;17.70;63.80;;;;;;5039979;28;20115;-59
2024/04/07 07:05:24;;;;;;;8.93;2.42;;;17.70;63.70;;;;;;5033821;28;20072;-59
2024/04/07 07:08:09;;;;;;;8.73;2.83;;;17.80;64.40;;;;;;5043266;28;20446;-59
2024/04/07 07:11:01;;;;;;;11.35;3.15;;;17.90;64.00;;;;;;5013091;28;20048;-59
2024/04/07 07:13:46;;;;;;;9.93;2.20;;;17.90;63.80;;;;;;5035105;28;20128;-61
2024/04/07 07:16:31;;;;;;;9.52;2.28;;;18.00;63.80;;;;;;5033321;28;20133;-60
2024/04/07 07:19:16;;;;;;;7.40;2.13;;;18.10;63.80;;;;;;5035093;28;20063;-59
2024/04/07 07:22:01;;;;;;;8.25;3.00;;;18.10;63.80;;;;;;5025531;28;20459;-58
2024/04/07 07:24:45;;;;;;;9.13;3.15;;;18.20;63.90;;;;;;5041685;28;20044;-63
2024/04/07 07:27:31;;;;;;;8.10;2.40;;;18.30;63.90;;;;;;5023131;28;20526;-59
2024/04/07 07:30:16;;;;;;;7.53;2.00;;;18.30;63.70;;;;;;5029861;28;20064;-59
2024/04/07 07:33:03;;;;;;;9.00;2.67;;;18.40;63.70;;;;;;5035626;28;20151;-59
2024/04/07 07:35:51;;;;;;;7.63;3.05;;;18.50;63.70;;;;;;5033845;28;20048;-59
2024/04/07 07:38:35;;;;;;;7.47;2.78;;;18.60;63.80;;;;;;5033878;28;20056;-59
2024/04/07 07:41:20;;;;;;;10.80;2.60;;;18.60;63.70;;;;;;5033424;28;20052;-57
2024/04/07 07:44:04;;;;;;;4.78;2.25;;;18.60;63.70;;;;;;5027133;28;20124;-58
2024/04/07 07:46:49;;;;;;;10.18;2.55;;;18.70;63.80;;;;;;5032058;28;20313;-63
2024/04/07 07:49:34;;;;;;;8.07;3.47;;;18.60;63.60;;;;;;5033912;28;20083;-59
2024/04/07 07:52:18;;;;;;;7.03;2.20;;;18.70;63.80;;;;;;5033303;28;20063;-58
2024/04/07 07:55:03;;;;;;;6.90;2.05;;;18.70;63.70;;;;;;5028813;28;20514;-59
2024/04/07 07:57:48;;;;;;;8.63;2.28;;;18.70;63.60;;;;;;5018376;28;20090;-59
2024/04/07 08:00:33;;;;;;;7.75;2.30;;;18.80;63.70;;;;;;5047592;28;20044;-59
2024/04/07 08:03:18;;;;;;;8.23;3.22;;;18.80;63.60;;;;;;5018619;28;20114;-58
2024/04/07 08:06:03;;;;;;;8.57;2.55;;;18.80;63.50;;;;;;5032997;28;20561;-61
2024/04/07 08:08:48;;;;;;;8.93;2.45;;;18.80;63.50;;;;;;5014602;28;20110;-59
2024/04/07 08:11:33;;;;;;;5.88;2.05;;;18.80;63.50;;;;;;5032080;28;20509;-59
2024/04/07 08:14:17;;;;;;;11.55;3.67;;;18.80;63.50;;;;;;5036123;28;20255;-60
2024/04/07 08:17:04;;;;;;;11.98;2.72;;;18.90;63.60;;;;;;5026362;28;20060;-59
2024/04/07 08:19:48;;;;;;;8.07;2.40;;;19.00;63.70;;;;;;5031557;28;20044;-59
2024/04/07 08:22:33;;;;;;;7.20;2.33;;;19.10;63.60;;;;;;5033318;28;20144;-60
2024/04/07 08:25:18;;;;;;;8.27;2.40;;;19.10;63.40;;;;;;5033716;28;20571;-58
2024/04/07 08:28:06;;;;;;;11.10;3.55;;;19.30;63.60;;;;;;5017928;28;20765;-59
2024/04/07 08:30:50;;;;;;;7.55;2.22;;;19.40;63.50;;;;;;5037837;28;20117;-58
2024/04/07 08:33:35;;;;;;;10.18;2.72;;;19.50;63.30;;;;;;5036185;28;20039;-59
2024/04/07 08:36:21;;;;;;;7.53;2.20;;;19.70;63.40;;;;;;5033810;28;20079;-59
2024/04/07 08:39:06;;;;;;;10.73;3.17;;;19.80;63.20;;;;;;5035936;28;20036;-60
2024/04/07 08:41:51;;;;;;;10.00;3.05;;;20.00;63.30;;;;;;5031311;28;20159;-58
2024/04/07 08:44:38;;;;;;;9.18;2.38;;;20.10;63.20;;;;;;5031335;28;20047;-59
2024/04/07 08:47:24;;;;;;;6.35;1.85;;;20.20;63.10;;;;;;5036915;28;20511;-58
2024/04/07 08:50:13;;;;;;;9.68;2.42;;;20.30;63.00;;;;;;5029239;28;20109;-59
2024/04/07 08:52:58;;;;;;;14.07;5.85;;;20.50;63.10;;;;;;5030987;28;20346;-59
2024/04/07 08:55:45;;;;;;;109.93;91.18;;;20.60;62.90;;;;;;5028515;28;20047;-59
2024/04/07 08:58:30;;;;;;;62.47;50.42;;;20.70;62.90;;;;;;5011208;28;20538;-58
2024/04/07 09:01:18;;;;;;;51.65;41.50;;;20.80;62.90;;;;;;5018514;28;20676;-58
2024/04/07 09:04:03;;;;;;;65.65;58.35;;;20.80;62.60;;;;;;5024113;28;20093;-59
2024/04/07 09:06:48;;;;;;;88.80;77.65;;;20.90;62.60;;;;;;5016628;28;20750;-59
2024/04/07 09:09:33;;;;;;;83.97;72.03;;;20.80;62.50;;;;;;5030214;28;20553;-59
2024/04/07 09:12:18;;;;;;;98.28;86.68;;;20.90;62.70;;;;;;5032349;28;20227;-59
2024/04/07 09:15:04;;;;;;;142.35;126.95;;;20.90;62.70;;;;;;5024817;28;20125;-58
2024/04/07 09:17:49;;;;;;;144.80;129.13;;;21.00;62.80;;;;;;5031804;28;20408;-58
2024/04/07 09:20:34;;;;;;;136.00;121.60;;;21.10;63.00;;;;;;5028644;28;20832;-59
2024/04/07 09:23:24;;;;;;;123.00;110.07;;;21.20;63.00;;;;;;5033152;28;20048;-59
2024/04/07 09:26:10;;;;;;;114.60;102.82;;;21.30;62.90;;;;;;5018836;28;20051;-60
2024/04/07 09:28:54;;;;;;;108.50;97.15;;;21.40;62.80;;;;;;5038527;28;20435;-58
2024/04/07 09:31:39;;;;;;;97.70;87.40;;;21.50;62.80;;;;;;5039464;28;20101;-59
2024/04/07 09:34:25;;;;;;;94.85;83.50;;;21.60;62.80;;;;;;5040792;28;20069;-62
2024/04/07 09:37:09;;;;;;;86.82;77.45;;;21.70;62.70;;;;;;5033780;28;20099;-60
2024/04/07 09:39:55;;;;;;;83.97;74.78;;;21.70;62.50;;;;;;5038475;28;20035;-61
2024/04/07 09:42:40;;;;;;;79.10;68.28;;;21.80;62.50;;;;;;5036387;28;20056;-60
2024/04/07 09:45:25;;;;;;;69.85;62.42;;;21.80;62.30;;;;;;5040508;28;20780;-59
2024/04/07 09:48:12;;;;;;;63.30;56.42;;;21.80;62.20;;;;;;5029865;28;20091;-61
2024/04/07 09:50:59;;;;;;;62.05;54.17;;;21.80;62.00;;;;;;5019695;28;20028;-59
2024/04/07 09:53:56;;;;;;;59.38;49.67;;;21.80;61.90;;;;;;5036287;28;20044;-59
2024/04/07 09:56:42;;;;;;;52.83;46.95;;;21.90;61.90;;;;;;5016017;28;20506;-59
2024/04/07 09:59:27;;;;;;;54.03;47.20;;;22.00;61.90;;;;;;5037740;28;20063;-58
2024/04/07 10:02:14;;;;;;;50.88;43.97;;;22.10;61.90;;;;;;5031482;28;20055;-60
2024/04/07 10:04:59;;;;;;;46.53;41.35;;;22.20;61.80;;;;;;5036081;28;20044;-60
2024/04/07 10:07:44;;;;;;;47.70;41.45;;;22.30;61.70;;;;;;5035763;28;20103;-60
2024/04/07 10:10:29;;;;;;;48.33;39.63;;;22.40;61.70;;;;;;5026682;28;20152;-59
2024/04/07 10:13:17;;;;;;;41.80;34.63;;;22.50;61.60;;;;;;5040316;28;20125;-59
2024/04/07 10:16:02;;;;;;;38.33;33.63;;;22.60;61.60;;;;;;5029804;28;20662;-58
2024/04/07 10:18:47;;;;;;;36.92;32.88;;;22.70;61.50;;;;;;5036488;28;20071;-59
2024/04/07 10:21:33;;;;;;;33.00;28.92;;;22.80;61.40;;;;;;5034136;28;20419;-59
2024/04/07 10:24:21;;;;;;;31.52;28.13;;;23.00;61.50;;;;;;5034275;28;20220;-66
2024/04/07 10:27:09;;;;;;;27.77;24.60;;;23.10;61.40;;;;;;5035637;28;20355;-60
2024/04/07 10:29:55;;;;;;;28.85;24.27;;;23.20;61.10;;;;;;5040667;28;20123;-59
2024/04/07 10:32:40;;;;;;;25.85;22.88;;;23.30;61.00;;;;;;5034800;28;20035;-60
2024/04/07 10:35:26;;;;;;;25.67;21.50;;;23.40;61.00;;;;;;5036263;28;20194;-59
2024/04/07 10:38:12;;;;;;;24.98;22.38;;;23.50;60.90;;;;;;5029231;28;20058;-60
2024/04/07 10:40:59;;;;;;;24.98;20.55;;;23.60;60.90;;;;;;5019643;28;20566;-59
2024/04/07 10:43:45;;;;;;;22.17;19.77;;;23.70;60.90;;;;;;5037634;28;20546;-62
2024/04/07 10:46:32;;;;;;;24.13;20.02;;;23.80;60.90;;;;;;5031814;28;20059;-58
2024/04/07 10:49:18;;;;;;;22.05;18.45;;;23.90;60.90;;;;;;5036463;28;20142;-58
2024/04/07 10:52:03;;;;;;;17.70;15.82;;;23.90;60.80;;;;;;5034280;28;20106;-59
2024/04/07 10:54:52;;;;;;;19.08;15.88;;;23.80;60.40;;;;;;5032384;28;20044;-59
2024/04/07 10:57:39;;;;;;;18.30;16.27;;;23.80;60.30;;;;;;5015979;28;20510;-59
2024/04/07 11:00:24;;;;;;;20.85;16.65;;;23.80;60.40;;;;;;5035340;28;20044;-57
2024/04/07 11:03:09;;;;;;;18.80;15.35;;;23.80;60.40;;;;;;5036410;28;20545;-58
2024/04/07 11:06:00;;;;;;;18.67;14.15;;;23.70;60.10;;;;;;5032761;28;20467;-58
2024/04/07 11:08:45;;;;;;;15.98;13.45;;;23.80;60.10;;;;;;5022479;28;20475;-59
2024/04/07 11:11:31;;;;;;;16.70;12.00;;;23.90;60.00;;;;;;5035610;28;20035;-60
2024/04/07 11:14:16;;;;;;;15.52;12.13;;;24.00;60.00;;;;;;5035882;28;20162;-59
2024/04/07 11:17:06;;;;;;;13.85;10.82;;;24.10;59.80;;;;;;5024770;28;20091;-59
2024/04/07 11:19:53;;;;;;;12.10;10.68;;;24.20;59.60;;;;;;5035472;28;20486;-59
2024/04/07 11:22:39;;;;;;;13.18;11.07;;;24.30;59.60;;;;;;5030637;28;20766;-59
2024/04/07 11:25:24;;;;;;;13.45;10.38;;;24.40;59.50;;;;;;5040922;28;20097;-59
2024/04/07 11:28:11;;;;;;;12.60;9.52;;;24.50;59.40;;;;;;5041521;28;20048;-59
2024/04/07 11:30:57;;;;;;;14.07;9.90;;;24.60;59.30;;;;;;5020788;28;20059;-59
2024/04/07 11:33:42;;;;;;;10.77;8.20;;;24.60;58.90;;;;;;5035811;28;20064;-60
2024/04/07 11:36:27;;;;;;;13.68;8.95;;;24.70;58.80;;;;;;5033800;28;20442;-59
2024/04/07 11:39:11;;;;;;;10.25;8.85;;;24.60;58.50;;;;;;5024615;28;20087;-60
2024/04/07 11:41:56;;;;;;;10.95;8.40;;;24.60;58.50;;;;;;5031312;28;20116;-59
2024/04/07 11:44:41;;;;;;;11.88;8.98;;;24.60;58.40;;;;;;5031902;28;20040;-59
2024/04/07 11:47:26;;;;;;;11.45;8.60;;;24.60;58.30;;;;;;5013579;28;20052;-60
2024/04/07 11:50:11;;;;;;;10.45;8.52;;;24.70;58.40;;;;;;5026846;28;20433;-58
2024/04/07 11:52:56;;;;;;;12.40;9.43;;;24.70;58.20;;;;;;5034974;28;20622;-59
2024/04/07 11:55:40;;;;;;;12.60;8.52;;;24.80;58.30;;;;;;5024504;28;20071;-58
2024/04/07 11:58:25;;;;;;;11.98;8.55;;;24.90;58.30;;;;;;5028967;28;20277;-59
2024/04/07 12:01:10;;;;;;;12.40;10.43;;;25.10;58.20;;;;;;5036636;28;20072;-60
2024/04/07 12:03:58;;;;;;;13.55;8.57;;;25.20;58.10;;;;;;5029988;28;20431;-58
2024/04/07 12:06:43;;;;;;;12.68;8.95;;;25.30;57.90;;;;;;5031666;28;20540;-59
2024/04/07 12:09:28;;;;;;;17.63;8.25;;;25.40;57.70;;;;;;5016267;28;20063;-59
2024/04/07 12:12:13;;;;;;;10.65;8.07;;;25.50;57.60;;;;;;5012758;28;20520;-58
2024/04/07 12:14:59;;;;;;;11.55;8.40;;;25.60;57.50;;;;;;5025292;28;20110;-58
2024/04/07 12:17:44;;;;;;;9.95;7.13;;;25.70;57.50;;;;;;5016986;28;20457;-58
2024/04/07 12:20:29;;;;;;;11.38;6.88;;;25.70;57.40;;;;;;5035704;28;20107;-59
2024/04/07 12:23:14;;;;;;;12.43;7.88;;;25.80;57.30;;;;;;5029803;28;20083;-59
2024/04/07 12:25:58;;;;;;;11.90;6.55;;;25.90;57.10;;;;;;5009599;28;20528;-60
2024/04/07 12:28:43;;;;;;;9.38;7.57;;;25.90;57.10;;;;;;5026086;28;20039;-59
2024/04/07 12:31:28;;;;;;;13.05;7.88;;;26.00;56.90;;;;;;5033433;28;20087;-59
2024/04/07 12:34:13;;;;;;;11.70;7.38;;;26.10;56.90;;;;;;5029914;28;20044;-59
2024/04/07 12:36:57;;;;;;;9.57;6.93;;;26.20;57.00;;;;;;5029831;28;20091;-60
2024/04/07 12:39:42;;;;;;;11.98;7.28;;;26.30;57.00;;;;;;5028681;28;20526;-60
2024/04/07 12:42:29;;;;;;;11.23;5.80;;;26.40;56.90;;;;;;5026588;28;20044;-60
2024/04/07 12:45:16;;;;;;;9.25;5.68;;;26.40;56.80;;;;;;5027792;28;20040;-59
2024/04/07 12:48:01;;;;;;;11.80;6.95;;;26.40;56.60;;;;;;5031462;28;20067;-58
2024/04/07 12:50:45;;;;;;;10.18;6.43;;;26.50;56.50;;;;;;5031102;28;20035;-60
2024/04/07 12:53:30;;;;;;;10.27;5.93;;;26.50;56.60;;;;;;5031201;28;20060;-59
2024/04/07 12:56:16;;;;;;;7.18;5.60;;;26.50;56.60;;;;;;5026995;28;20048;-59
2024/04/07 12:59:02;;;;;;;7.80;5.07;;;26.50;56.60;;;;;;5022042;28;20052;-59
2024/04/07 13:01:50;;;;;;;9.23;6.05;;;26.50;56.60;;;;;;5037589;28;20541;-58
2024/04/07 13:04:35;;;;;;;10.52;5.45;;;26.50;56.50;;;;;;5030731;28;20060;-58
2024/04/07 13:07:20;;;;;;;10.82;5.03;;;26.60;56.50;;;;;;5036610;28;20132;-58
2024/04/07 13:10:07;;;;;;;9.93;5.53;;;26.60;56.50;;;;;;5035948;28;20106;-59
2024/04/07 13:12:53;;;;;;;9.80;5.18;;;26.60;56.50;;;;;;5032367;28;20722;-59
2024/04/07 13:15:38;;;;;;;9.45;5.05;;;26.70;56.40;;;;;;5030616;28;20083;-59
2024/04/07 13:18:22;;;;;;;9.13;5.05;;;26.80;56.40;;;;;;5019323;28;20075;-59
2024/04/07 13:21:08;;;;;;;7.90;4.63;;;26.90;56.40;;;;;;5031806;28;20080;-59
2024/04/07 13:23:53;;;;;;;9.00;4.70;;;26.90;56.30;;;;;;5023222;28;20660;-59
2024/04/07 13:26:37;;;;;;;7.75;4.43;;;27.00;56.20;;;;;;5037273;28;20461;-60
2024/04/07 13:29:22;;;;;;;9.60;4.22;;;27.10;56.10;;;;;;5033124;28;20236;-60
2024/04/07 13:32:07;;;;;;;9.88;5.13;;;27.00;56.00;;;;;;5031071;28;20568;-60
2024/04/07 13:34:52;;;;;;;8.70;4.63;;;27.00;56.10;;;;;;5033769;28;20250;-59
2024/04/07 13:37:37;;;;;;;7.47;4.63;;;27.00;56.20;;;;;;5035420;28;20601;-60
2024/04/07 13:40:21;;;;;;;8.48;3.90;;;27.00;56.20;;;;;;5018402;28;20043;-59
2024/04/07 13:43:06;;;;;;;7.43;4.38;;;27.00;56.10;;;;;;5033710;28;20182;-59
2024/04/07 13:45:51;;;;;;;8.30;3.80;;;27.00;56.00;;;;;;5034143;28;20327;-58
2024/04/07 13:48:37;;;;;;;9.57;4.20;;;27.10;56.00;;;;;;5028279;28;20048;-59
2024/04/07 13:51:22;;;;;;;9.68;4.72;;;27.10;55.90;;;;;;5019967;28;20453;-56
2024/04/07 13:54:06;;;;;;;7.75;4.03;;;27.10;55.80;;;;;;5029505;28;20071;-57
2024/04/07 13:56:51;;;;;;;7.47;4.00;;;27.10;56.00;;;;;;5036147;28;20044;-59
2024/04/07 13:59:35;;;;;;;7.82;3.78;;;27.10;55.80;;;;;;5017841;28;20040;-59
2024/04/07 14:02:20;;;;;;;8.40;3.50;;;27.10;55.80;;;;;;5035687;28;20044;-58
2024/04/07 14:05:06;;;;;;;10.52;4.00;;;27.10;55.70;;;;;;5034585;28;20071;-58
2024/04/07 14:07:51;;;;;;;9.20;4.00;;;27.10;55.70;;;;;;5034991;28;20542;-59
2024/04/07 14:10:38;;;;;;;8.23;3.92;;;27.10;55.70;;;;;;5036090;28;20102;-58
2024/04/07 14:13:23;;;;;;;7.57;3.28;;;27.10;55.60;;;;;;5037295;28;20052;-58
2024/04/07 14:16:07;;;;;;;7.50;3.20;;;27.10;55.60;;;;;;5030908;28;20094;-58